sensor_id;sensor_type;location;lat;lon;timestamp;temperature;humidity
6118;DHT22;3089;48.202;11.510;2023-07-24T00:02:14;22.40;99.90
6118;DHT22;3089;48.202;11.510;2023-07-24T00:04:42;22.30;99.90
6118;DHT22;3089;48.202;11.510;2023-07-24T00:07:09;22.30;99.90
6118;DHT22;3089;48.202;11.510;2023-07-24T00:09:37;22.30;99.90
6118;DHT22;3089;48.202;11.510;2023-07-24T00:12:07;22.30;99.90
6118;DHT22;3089;48.202;11.510;2023-07-24T00:14:35;22.30;99.90
6118;DHT22;3089;48.202;11.510;2023-07-24T00:17:04;22.20;99.90
6118;DHT22;3089;48.202;11.510;2023-07-24T00:19:32;22.10;99.90
6118;DHT22;3089;48.202;11.510;2023-07-24T00:21:59;22.20;99.90
6118;DHT22;3089;48.202;11.510;2023-07-24T00:24:27;22.10;99.90
6118;DHT22;3089;48.202;11.510;2023-07-24T00:26:55;22.10;99.90
6118;DHT22;3089;48.202;11.510;2023-07-24T00:29:25;22.00;99.90
6118;DHT22;3089;48.202;11.510;2023-07-24T00:31:52;22.00;99.90
6118;DHT22;3089;48.202;11.510;2023-07-24T00:34:20;22.00;99.90
6118;DHT22;3089;48.202;11.510;2023-07-24T00:36:48;22.00;99.90
6118;DHT22;3089;48.202;11.510;2023-07-24T00:39:16;22.00;99.90
6118;DHT22;3089;48.202;11.510;2023-07-24T00:41:44;22.00;99.90
6118;DHT22;3089;48.202;11.510;2023-07-24T00:44:12;22.00;99.90
6118;DHT22;3089;48.202;11.510;2023-07-24T00:46:41;21.90;99.90
6118;DHT22;3089;48.202;11.510;2023-07-24T00:49:09;21.90;99.90
6118;DHT22;3089;48.202;11.510;2023-07-24T00:51:37;21.80;99.90
6118;DHT22;3089;48.202;11.510;2023-07-24T00:54:06;21.80;99.90
6118;DHT22;3089;48.202;11.510;2023-07-24T00:56:34;21.80;99.90
6118;DHT22;3089;48.202;11.510;2023-07-24T00:59:02;21.70;99.90
6118;DHT22;3089;48.202;11.510;2023-07-24T01:01:30;21.70;99.90
6118;DHT22;3089;48.202;11.510;2023-07-24T01:04:01;21.70;99.90
6118;DHT22;3089;48.202;11.510;2023-07-24T01:06:30;21.70;99.90
6118;DHT22;3089;48.202;11.510;2023-07-24T01:08:58;21.70;99.90
6118;DHT22;3089;48.202;11.510;2023-07-24T01:11:30;21.60;99.90
6118;DHT22;3089;48.202;11.510;2023-07-24T01:14:06;21.60;99.90
6118;DHT22;3089;48.202;11.510;2023-07-24T01:16:41;21.60;99.90
6118;DHT22;3089;48.202;11.510;2023-07-24T01:19:18;21.50;99.90
6118;DHT22;3089;48.202;11.510;2023-07-24T01:21:58;21.50;99.90
6118;DHT22;3089;48.202;11.510;2023-07-24T01:24:38;21.50;99.90
6118;DHT22;3089;48.202;11.510;2023-07-24T01:27:08;21.60;99.90
6118;DHT22;3089;48.202;11.510;2023-07-24T01:29:36;21.50;99.90
6118;DHT22;3089;48.202;11.510;2023-07-24T01:32:05;21.50;99.90
6118;DHT22;3089;48.202;11.510;2023-07-24T01:34:33;21.50;99.90
6118;DHT22;3089;48.202;11.510;2023-07-24T01:37:01;21.40;99.90
6118;DHT22;3089;48.202;11.510;2023-07-24T01:39:29;21.40;99.90
6118;DHT22;3089;48.202;11.510;2023-07-24T01:41:57;21.40;99.90
6118;DHT22;3089;48.202;11.510;2023-07-24T01:44:27;21.40;99.90
6118;DHT22;3089;48.202;11.510;2023-07-24T01:46:55;21.30;99.90
6118;DHT22;3089;48.202;11.510;2023-07-24T01:49:23;21.30;99.90
6118;DHT22;3089;48.202;11.510;2023-07-24T01:51:50;21.30;99.90
6118;DHT22;3089;48.202;11.510;2023-07-24T01:54:18;21.30;99.90
6118;DHT22;3089;48.202;11.510;2023-07-24T01:56:46;21.40;99.90
6118;DHT22;3089;48.202;11.510;2023-07-24T01:59:14;21.40;99.90
6118;DHT22;3089;48.202;11.510;2023-07-24T02:01:43;21.30;99.90
6118;DHT22;3089;48.202;11.510;2023-07-24T02:04:11;20.30;99.90
6118;DHT22;3089;48.202;11.510;2023-07-24T02:06:39;20.80;99.90
6118;DHT22;3089;48.202;11.510;2023-07-24T02:09:07;20.90;99.90
6118;DHT22;3089;48.202;11.510;2023-07-24T02:11:35;21.00;99.90
6118;DHT22;3089;48.202;11.510;2023-07-24T02:14:03;21.10;99.90
6118;DHT22;3089;48.202;11.510;2023-07-24T02:16:31;21.10;99.90
6118;DHT22;3089;48.202;11.510;2023-07-24T02:19:01;20.90;99.90
6118;DHT22;3089;48.202;11.510;2023-07-24T02:21:29;20.90;99.90
6118;DHT22;3089;48.202;11.510;2023-07-24T02:23:57;20.90;99.90
6118;DHT22;3089;48.202;11.510;2023-07-24T02:26:25;20.30;99.90
6118;DHT22;3089;48.202;11.510;2023-07-24T02:28:53;19.70;99.90
6118;DHT22;3089;48.202;11.510;2023-07-24T02:31:21;20.10;99.90
6118;DHT22;3089;48.202;11.510;2023-07-24T02:33:49;20.70;99.90
6118;DHT22;3089;48.202;11.510;2023-07-24T02:36:18;20.90;99.90
6118;DHT22;3089;48.202;11.510;2023-07-24T02:38:46;21.00;99.90
6118;DHT22;3089;48.202;11.510;2023-07-24T02:41:14;20.90;99.90
6118;DHT22;3089;48.202;11.510;2023-07-24T02:43:42;21.10;99.90
6118;DHT22;3089;48.202;11.510;2023-07-24T02:46:09;20.60;99.90
6118;DHT22;3089;48.202;11.510;2023-07-24T02:48:37;19.60;99.90
6118;DHT22;3089;48.202;11.510;2023-07-24T02:51:05;19.20;99.90
6118;DHT22;3089;48.202;11.510;2023-07-24T02:53:34;19.50;99.90
6118;DHT22;3089;48.202;11.510;2023-07-24T02:56:02;20.20;99.90
6118;DHT22;3089;48.202;11.510;2023-07-24T02:58:30;20.70;99.90
6118;DHT22;3089;48.202;11.510;2023-07-24T03:01:03;20.80;99.90
6118;DHT22;3089;48.202;11.510;2023-07-24T03:03:32;20.90;99.90
6118;DHT22;3089;48.202;11.510;2023-07-24T03:06:00;21.00;99.90
6118;DHT22;3089;48.202;11.510;2023-07-24T03:08:28;21.10;99.90
6118;DHT22;3089;48.202;11.510;2023-07-24T03:10:59;21.20;99.90
6118;DHT22;3089;48.202;11.510;2023-07-24T03:13:28;21.10;99.90
6118;DHT22;3089;48.202;11.510;2023-07-24T03:15:58;20.70;99.90
6118;DHT22;3089;48.202;11.510;2023-07-24T03:18:26;20.80;99.90
6118;DHT22;3089;48.202;11.510;2023-07-24T03:20:54;20.70;99.90
6118;DHT22;3089;48.202;11.510;2023-07-24T03:23:21;20.20;99.90
6118;DHT22;3089;48.202;11.510;2023-07-24T03:25:49;20.10;99.90
6118;DHT22;3089;48.202;11.510;2023-07-24T03:28:18;20.40;99.90
6118;DHT22;3089;48.202;11.510;2023-07-24T03:30:46;19.40;99.90
6118;DHT22;3089;48.202;11.510;2023-07-24T03:33:14;19.90;99.90
6118;DHT22;3089;48.202;11.510;2023-07-24T03:35:42;19.50;99.90
6118;DHT22;3089;48.202;11.510;2023-07-24T03:38:10;20.10;99.90
6118;DHT22;3089;48.202;11.510;2023-07-24T03:40:38;20.40;99.90
6118;DHT22;3089;48.202;11.510;2023-07-24T03:43:06;20.50;99.90
6118;DHT22;3089;48.202;11.510;2023-07-24T03:45:35;19.30;99.90
6118;DHT22;3089;48.202;11.510;2023-07-24T03:48:04;18.50;99.90
6118;DHT22;3089;48.202;11.510;2023-07-24T03:50:32;18.10;99.90
6118;DHT22;3089;48.202;11.510;2023-07-24T03:53:00;17.80;99.90
6118;DHT22;3089;48.202;11.510;2023-07-24T03:55:28;17.70;99.90
6118;DHT22;3089;48.202;11.510;2023-07-24T03:57:56;18.80;99.90
6118;DHT22;3089;48.202;11.510;2023-07-24T04:00:24;19.00;99.90
6118;DHT22;3089;48.202;11.510;2023-07-24T04:02:53;19.80;99.90
6118;DHT22;3089;48.202;11.510;2023-07-24T04:05:21;20.20;99.90
6118;DHT22;3089;48.202;11.510;2023-07-24T04:07:49;20.30;99.90
6118;DHT22;3089;48.202;11.510;2023-07-24T04:10:16;20.40;99.90
6118;DHT22;3089;48.202;11.510;2023-07-24T04:12:44;19.90;99.90
6118;DHT22;3089;48.202;11.510;2023-07-24T04:15:12;19.60;99.90
6118;DHT22;3089;48.202;11.510;2023-07-24T04:17:40;19.60;99.90
6118;DHT22;3089;48.202;11.510;2023-07-24T04:20:10;19.90;99.90
6118;DHT22;3089;48.202;11.510;2023-07-24T04:22:38;18.70;99.90
6118;DHT22;3089;48.202;11.510;2023-07-24T04:25:07;19.50;99.90
6118;DHT22;3089;48.202;11.510;2023-07-24T04:27:35;19.60;99.90
6118;DHT22;3089;48.202;11.510;2023-07-24T04:30:03;19.20;99.90
6118;DHT22;3089;48.202;11.510;2023-07-24T04:32:31;20.20;99.90
6118;DHT22;3089;48.202;11.510;2023-07-24T04:34:59;20.30;99.90
6118;DHT22;3089;48.202;11.510;2023-07-24T04:37:28;20.20;99.90
6118;DHT22;3089;48.202;11.510;2023-07-24T04:39:56;20.30;99.90
6118;DHT22;3089;48.202;11.510;2023-07-24T04:42:24;19.10;99.90
6118;DHT22;3089;48.202;11.510;2023-07-24T04:44:52;19.90;99.90
6118;DHT22;3089;48.202;11.510;2023-07-24T04:47:20;20.30;99.90
6118;DHT22;3089;48.202;11.510;2023-07-24T04:49:47;20.20;99.90
6118;DHT22;3089;48.202;11.510;2023-07-24T04:52:15;20.30;99.90
6118;DHT22;3089;48.202;11.510;2023-07-24T04:54:45;20.40;99.90
6118;DHT22;3089;48.202;11.510;2023-07-24T04:57:13;20.40;99.90
6118;DHT22;3089;48.202;11.510;2023-07-24T04:59:40;20.30;99.90
6118;DHT22;3089;48.202;11.510;2023-07-24T05:02:10;20.40;99.90
6118;DHT22;3089;48.202;11.510;2023-07-24T05:04:38;20.40;99.90
6118;DHT22;3089;48.202;11.510;2023-07-24T05:07:06;20.30;99.90
6118;DHT22;3089;48.202;11.510;2023-07-24T05:09:33;20.30;99.90
6118;DHT22;3089;48.202;11.510;2023-07-24T05:12:03;20.30;99.90
6118;DHT22;3089;48.202;11.510;2023-07-24T05:14:31;20.40;99.90
6118;DHT22;3089;48.202;11.510;2023-07-24T05:16:59;20.30;99.90
6118;DHT22;3089;48.202;11.510;2023-07-24T05:19:27;20.30;99.90
6118;DHT22;3089;48.202;11.510;2023-07-24T05:21:55;20.40;99.90
6118;DHT22;3089;48.202;11.510;2023-07-24T05:24:23;20.50;99.90
6118;DHT22;3089;48.202;11.510;2023-07-24T05:26:50;20.60;99.90
6118;DHT22;3089;48.202;11.510;2023-07-24T05:29:20;20.60;99.90
6118;DHT22;3089;48.202;11.510;2023-07-24T05:31:48;20.50;99.90
6118;DHT22;3089;48.202;11.510;2023-07-24T05:34:16;20.50;99.90
6118;DHT22;3089;48.202;11.510;2023-07-24T05:36:44;20.70;99.90
6118;DHT22;3089;48.202;11.510;2023-07-24T05:39:12;21.10;99.90
6118;DHT22;3089;48.202;11.510;2023-07-24T05:41:40;21.70;99.90
6118;DHT22;3089;48.202;11.510;2023-07-24T05:44:07;22.40;99.90
6118;DHT22;3089;48.202;11.510;2023-07-24T05:46:37;21.60;99.90
6118;DHT22;3089;48.202;11.510;2023-07-24T05:49:04;21.80;99.90
6118;DHT22;3089;48.202;11.510;2023-07-24T05:51:32;21.20;99.90
6118;DHT22;3089;48.202;11.510;2023-07-24T05:54:00;21.60;99.90
6118;DHT22;3089;48.202;11.510;2023-07-24T05:56:28;22.70;99.90
6118;DHT22;3089;48.202;11.510;2023-07-24T05:58:56;22.40;99.90
6118;DHT22;3089;48.202;11.510;2023-07-24T06:01:24;23.50;99.90
6118;DHT22;3089;48.202;11.510;2023-07-24T06:03:53;23.60;99.90
6118;DHT22;3089;48.202;11.510;2023-07-24T06:06:21;23.80;99.90
6118;DHT22;3089;48.202;11.510;2023-07-24T06:08:49;23.30;99.90
6118;DHT22;3089;48.202;11.510;2023-07-24T06:11:17;23.60;99.90
6118;DHT22;3089;48.202;11.510;2023-07-24T06:13:45;23.80;99.90
6118;DHT22;3089;48.202;11.510;2023-07-24T06:16:13;23.00;99.90
6118;DHT22;3089;48.202;11.510;2023-07-24T06:18:41;22.30;99.90
6118;DHT22;3089;48.202;11.510;2023-07-24T06:21:11;22.30;99.90
6118;DHT22;3089;48.202;11.510;2023-07-24T06:23:38;22.30;99.90
6118;DHT22;3089;48.202;11.510;2023-07-24T06:26:06;22.70;99.90
6118;DHT22;3089;48.202;11.510;2023-07-24T06:28:34;22.80;99.90
6118;DHT22;3089;48.202;11.510;2023-07-24T06:31:02;22.40;99.90
6118;DHT22;3089;48.202;11.510;2023-07-24T06:33:30;23.70;99.90
6118;DHT22;3089;48.202;11.510;2023-07-24T06:35:58;24.20;99.90
6118;DHT22;3089;48.202;11.510;2023-07-24T06:38:27;24.70;99.90
6118;DHT22;3089;48.202;11.510;2023-07-24T06:40:55;25.50;99.90
6118;DHT22;3089;48.202;11.510;2023-07-24T06:43:23;23.90;99.90
6118;DHT22;3089;48.202;11.510;2023-07-24T06:45:51;22.70;99.90
6118;DHT22;3089;48.202;11.510;2023-07-24T06:48:18;23.10;99.90
6118;DHT22;3089;48.202;11.510;2023-07-24T06:50:46;24.10;99.90
6118;DHT22;3089;48.202;11.510;2023-07-24T06:53:14;25.50;99.90
6118;DHT22;3089;48.202;11.510;2023-07-24T06:55:43;25.70;99.90
6118;DHT22;3089;48.202;11.510;2023-07-24T06:58:11;24.90;99.90
6118;DHT22;3089;48.202;11.510;2023-07-24T07:00:39;24.30;99.90
6118;DHT22;3089;48.202;11.510;2023-07-24T07:03:07;26.00;99.90
6118;DHT22;3089;48.202;11.510;2023-07-24T07:05:35;26.80;99.90
6118;DHT22;3089;48.202;11.510;2023-07-24T07:08:03;26.40;99.90
6118;DHT22;3089;48.202;11.510;2023-07-24T07:10:31;25.20;99.90
6118;DHT22;3089;48.202;11.510;2023-07-24T07:13:00;24.00;99.90
6118;DHT22;3089;48.202;11.510;2023-07-24T07:15:28;23.50;99.90
6118;DHT22;3089;48.202;11.510;2023-07-24T07:17:56;23.50;99.90
6118;DHT22;3089;48.202;11.510;2023-07-24T07:20:24;23.30;99.90
6118;DHT22;3089;48.202;11.510;2023-07-24T07:22:52;23.10;99.90
6118;DHT22;3089;48.202;11.510;2023-07-24T07:25:20;22.80;99.90
6118;DHT22;3089;48.202;11.510;2023-07-24T07:27:48;22.80;99.90
6118;DHT22;3089;48.202;11.510;2023-07-24T07:30:17;22.70;99.90
6118;DHT22;3089;48.202;11.510;2023-07-24T07:32:45;22.50;99.90
6118;DHT22;3089;48.202;11.510;2023-07-24T07:35:15;22.30;99.90
6118;DHT22;3089;48.202;11.510;2023-07-24T07:37:43;22.10;99.90
6118;DHT22;3089;48.202;11.510;2023-07-24T07:40:11;22.00;99.90
6118;DHT22;3089;48.202;11.510;2023-07-24T07:42:39;21.80;99.90
6118;DHT22;3089;48.202;11.510;2023-07-24T07:45:10;21.90;99.90
6118;DHT22;3089;48.202;11.510;2023-07-24T07:47:40;21.80;99.90
6118;DHT22;3089;48.202;11.510;2023-07-24T07:50:08;21.70;99.90
6118;DHT22;3089;48.202;11.510;2023-07-24T07:52:36;21.80;99.90
6118;DHT22;3089;48.202;11.510;2023-07-24T07:55:04;21.80;99.90
6118;DHT22;3089;48.202;11.510;2023-07-24T07:57:34;21.80;99.90
6118;DHT22;3089;48.202;11.510;2023-07-24T08:00:03;21.90;99.90
6118;DHT22;3089;48.202;11.510;2023-07-24T08:02:31;21.80;99.90
6118;DHT22;3089;48.202;11.510;2023-07-24T08:05:00;21.80;99.90
6118;DHT22;3089;48.202;11.510;2023-07-24T08:07:38;21.90;99.90
6118;DHT22;3089;48.202;11.510;2023-07-24T08:10:07;21.80;99.90
6118;DHT22;3089;48.202;11.510;2023-07-24T08:12:35;21.90;99.90
6118;DHT22;3089;48.202;11.510;2023-07-24T08:15:03;22.00;99.90
6118;DHT22;3089;48.202;11.510;2023-07-24T08:17:31;21.90;99.90
6118;DHT22;3089;48.202;11.510;2023-07-24T08:20:01;21.60;99.90
6118;DHT22;3089;48.202;11.510;2023-07-24T08:22:29;21.80;99.90
6118;DHT22;3089;48.202;11.510;2023-07-24T08:24:57;21.60;99.90
6118;DHT22;3089;48.202;11.510;2023-07-24T08:27:25;21.50;99.90
6118;DHT22;3089;48.202;11.510;2023-07-24T08:29:53;21.20;99.90
6118;DHT22;3089;48.202;11.510;2023-07-24T08:32:21;21.50;99.90
6118;DHT22;3089;48.202;11.510;2023-07-24T08:34:49;21.50;99.90
6118;DHT22;3089;48.202;11.510;2023-07-24T08:37:18;21.80;99.90
6118;DHT22;3089;48.202;11.510;2023-07-24T08:39:46;21.80;99.90
6118;DHT22;3089;48.202;11.510;2023-07-24T08:42:14;21.90;99.90
6118;DHT22;3089;48.202;11.510;2023-07-24T08:44:42;21.70;99.90
6118;DHT22;3089;48.202;11.510;2023-07-24T08:47:11;21.60;99.90
6118;DHT22;3089;48.202;11.510;2023-07-24T08:49:39;20.80;99.90
6118;DHT22;3089;48.202;11.510;2023-07-24T08:52:07;20.50;99.90
6118;DHT22;3089;48.202;11.510;2023-07-24T08:54:41;20.00;99.90
6118;DHT22;3089;48.202;11.510;2023-07-24T08:57:11;20.00;99.90
6118;DHT22;3089;48.202;11.510;2023-07-24T08:59:39;20.40;99.90
6118;DHT22;3089;48.202;11.510;2023-07-24T09:02:07;21.20;99.90
6118;DHT22;3089;48.202;11.510;2023-07-24T09:04:35;21.50;99.90
6118;DHT22;3089;48.202;11.510;2023-07-24T09:07:04;21.70;99.90
6118;DHT22;3089;48.202;11.510;2023-07-24T09:09:32;21.70;99.90
6118;DHT22;3089;48.202;11.510;2023-07-24T09:12:01;21.70;99.90
6118;DHT22;3089;48.202;11.510;2023-07-24T09:14:29;21.70;99.90
6118;DHT22;3089;48.202;11.510;2023-07-24T09:17:03;21.60;99.90
6118;DHT22;3089;48.202;11.510;2023-07-24T09:19:31;21.70;99.90
6118;DHT22;3089;48.202;11.510;2023-07-24T09:22:08;21.70;99.90
6118;DHT22;3089;48.202;11.510;2023-07-24T09:24:37;21.70;99.90
6118;DHT22;3089;48.202;11.510;2023-07-24T09:27:07;21.70;99.90
6118;DHT22;3089;48.202;11.510;2023-07-24T09:29:36;21.70;99.90
6118;DHT22;3089;48.202;11.510;2023-07-24T09:32:05;21.70;99.90
6118;DHT22;3089;48.202;11.510;2023-07-24T09:34:33;21.70;99.90
6118;DHT22;3089;48.202;11.510;2023-07-24T09:37:00;21.70;99.90
6118;DHT22;3089;48.202;11.510;2023-07-24T09:39:29;21.80;99.90
6118;DHT22;3089;48.202;11.510;2023-07-24T09:42:03;22.20;99.90
6118;DHT22;3089;48.202;11.510;2023-07-24T09:44:32;22.70;99.90
6118;DHT22;3089;48.202;11.510;2023-07-24T09:47:01;23.30;99.90
6118;DHT22;3089;48.202;11.510;2023-07-24T09:49:50;23.30;99.90
6118;DHT22;3089;48.202;11.510;2023-07-24T09:52:19;22.90;99.90
6118;DHT22;3089;48.202;11.510;2023-07-24T09:54:55;22.70;99.90
6118;DHT22;3089;48.202;11.510;2023-07-24T09:57:23;22.50;99.90
6118;DHT22;3089;48.202;11.510;2023-07-24T09:59:56;22.60;99.90
6118;DHT22;3089;48.202;11.510;2023-07-24T10:02:24;22.90;99.90
6118;DHT22;3089;48.202;11.510;2023-07-24T10:04:53;23.10;99.90
6118;DHT22;3089;48.202;11.510;2023-07-24T10:07:22;22.90;99.90
6118;DHT22;3089;48.202;11.510;2023-07-24T10:09:50;22.70;99.90
6118;DHT22;3089;48.202;11.510;2023-07-24T10:12:19;22.60;99.90
6118;DHT22;3089;48.202;11.510;2023-07-24T10:14:48;22.50;99.90
6118;DHT22;3089;48.202;11.510;2023-07-24T10:17:34;22.70;99.90
6118;DHT22;3089;48.202;11.510;2023-07-24T10:20:04;22.70;99.90
6118;DHT22;3089;48.202;11.510;2023-07-24T10:22:32;22.80;99.90
6118;DHT22;3089;48.202;11.510;2023-07-24T10:28:03;22.90;99.90
6118;DHT22;3089;48.202;11.510;2023-07-24T10:30:34;22.90;99.90
6118;DHT22;3089;48.202;11.510;2023-07-24T10:33:08;23.30;99.90
6118;DHT22;3089;48.202;11.510;2023-07-24T10:35:38;23.50;99.90
6118;DHT22;3089;48.202;11.510;2023-07-24T10:38:06;24.10;99.90
6118;DHT22;3089;48.202;11.510;2023-07-24T10:40:34;24.50;99.90
6118;DHT22;3089;48.202;11.510;2023-07-24T10:43:06;24.50;99.90
6118;DHT22;3089;48.202;11.510;2023-07-24T10:45:47;24.50;99.90
6118;DHT22;3089;48.202;11.510;2023-07-24T10:48:15;24.30;99.90
6118;DHT22;3089;48.202;11.510;2023-07-24T10:50:44;24.00;99.90
6118;DHT22;3089;48.202;11.510;2023-07-24T10:53:14;23.60;99.90
6118;DHT22;3089;48.202;11.510;2023-07-24T10:55:43;23.60;99.90
6118;DHT22;3089;48.202;11.510;2023-07-24T10:58:13;23.80;99.90
6118;DHT22;3089;48.202;11.510;2023-07-24T11:00:42;24.00;99.90
6118;DHT22;3089;48.202;11.510;2023-07-24T11:03:11;24.30;99.90
6118;DHT22;3089;48.202;11.510;2023-07-24T11:05:39;24.30;99.90
6118;DHT22;3089;48.202;11.510;2023-07-24T11:08:11;24.60;99.90
6118;DHT22;3089;48.202;11.510;2023-07-24T11:10:45;24.80;99.90
6118;DHT22;3089;48.202;11.510;2023-07-24T11:13:15;24.80;99.90
6118;DHT22;3089;48.202;11.510;2023-07-24T11:15:43;24.80;99.90
6118;DHT22;3089;48.202;11.510;2023-07-24T11:18:11;25.20;99.90
6118;DHT22;3089;48.202;11.510;2023-07-24T11:20:45;25.00;99.90
6118;DHT22;3089;48.202;11.510;2023-07-24T11:23:14;25.10;99.90
6118;DHT22;3089;48.202;11.510;2023-07-24T11:25:42;25.30;99.90
6118;DHT22;3089;48.202;11.510;2023-07-24T11:28:12;25.20;99.90
6118;DHT22;3089;48.202;11.510;2023-07-24T11:30:42;25.50;99.90
6118;DHT22;3089;48.202;11.510;2023-07-24T11:33:11;25.30;99.90
6118;DHT22;3089;48.202;11.510;2023-07-24T11:35:43;25.30;99.90
6118;DHT22;3089;48.202;11.510;2023-07-24T11:38:11;25.60;99.90
6118;DHT22;3089;48.202;11.510;2023-07-24T11:40:40;25.50;99.90
6118;DHT22;3089;48.202;11.510;2023-07-24T11:43:16;25.40;99.90
6118;DHT22;3089;48.202;11.510;2023-07-24T11:45:46;25.80;99.90
6118;DHT22;3089;48.202;11.510;2023-07-24T11:48:15;25.90;99.90
6118;DHT22;3089;48.202;11.510;2023-07-24T11:50:44;25.50;99.90
6118;DHT22;3089;48.202;11.510;2023-07-24T11:53:23;25.20;99.90
6118;DHT22;3089;48.202;11.510;2023-07-24T11:55:52;25.00;99.90
6118;DHT22;3089;48.202;11.510;2023-07-24T11:58:21;25.00;99.90
6118;DHT22;3089;48.202;11.510;2023-07-24T12:00:50;24.70;99.90
6118;DHT22;3089;48.202;11.510;2023-07-24T12:03:20;24.50;99.90
6118;DHT22;3089;48.202;11.510;2023-07-24T12:05:48;24.40;99.90
6118;DHT22;3089;48.202;11.510;2023-07-24T12:08:19;24.20;99.90
6118;DHT22;3089;48.202;11.510;2023-07-24T12:10:50;24.20;99.90
6118;DHT22;3089;48.202;11.510;2023-07-24T12:13:17;24.20;99.90
6118;DHT22;3089;48.202;11.510;2023-07-24T12:15:47;24.00;99.90
6118;DHT22;3089;48.202;11.510;2023-07-24T12:18:17;23.70;99.90
6118;DHT22;3089;48.202;11.510;2023-07-24T12:20:45;23.60;99.90
6118;DHT22;3089;48.202;11.510;2023-07-24T12:23:13;23.50;99.90
6118;DHT22;3089;48.202;11.510;2023-07-24T12:25:42;23.30;99.90
6118;DHT22;3089;48.202;11.510;2023-07-24T12:28:10;23.20;99.90
6118;DHT22;3089;48.202;11.510;2023-07-24T12:30:38;22.90;99.90
6118;DHT22;3089;48.202;11.510;2023-07-24T12:33:06;22.90;99.90
6118;DHT22;3089;48.202;11.510;2023-07-24T12:35:35;22.90;99.90
6118;DHT22;3089;48.202;11.510;2023-07-24T12:38:03;23.00;99.90
6118;DHT22;3089;48.202;11.510;2023-07-24T12:40:31;23.00;99.90
6118;DHT22;3089;48.202;11.510;2023-07-24T12:42:59;23.20;99.90
6118;DHT22;3089;48.202;11.510;2023-07-24T12:45:26;23.40;99.90
6118;DHT22;3089;48.202;11.510;2023-07-24T12:47:54;23.40;99.90
6118;DHT22;3089;48.202;11.510;2023-07-24T12:50:22;23.00;99.90
6118;DHT22;3089;48.202;11.510;2023-07-24T12:52:52;23.00;99.90
6118;DHT22;3089;48.202;11.510;2023-07-24T12:55:20;22.90;99.90
6118;DHT22;3089;48.202;11.510;2023-07-24T12:57:48;22.80;99.90
6118;DHT22;3089;48.202;11.510;2023-07-24T13:00:16;22.60;99.90
6118;DHT22;3089;48.202;11.510;2023-07-24T13:02:44;22.80;99.90
6118;DHT22;3089;48.202;11.510;2023-07-24T13:05:12;22.70;99.90
6118;DHT22;3089;48.202;11.510;2023-07-24T13:07:40;22.00;99.90
6118;DHT22;3089;48.202;11.510;2023-07-24T13:10:10;22.60;99.90
6118;DHT22;3089;48.202;11.510;2023-07-24T13:12:38;22.40;99.90
6118;DHT22;3089;48.202;11.510;2023-07-24T13:15:06;22.40;99.90
6118;DHT22;3089;48.202;11.510;2023-07-24T13:17:34;22.40;99.90
6118;DHT22;3089;48.202;11.510;2023-07-24T13:20:03;22.00;99.90
6118;DHT22;3089;48.202;11.510;2023-07-24T13:22:31;21.80;99.90
6118;DHT22;3089;48.202;11.510;2023-07-24T13:24:59;22.00;99.90
6118;DHT22;3089;48.202;11.510;2023-07-24T13:27:28;22.40;99.90
6118;DHT22;3089;48.202;11.510;2023-07-24T13:29:56;21.90;99.90
6118;DHT22;3089;48.202;11.510;2023-07-24T13:32:24;22.30;99.90
6118;DHT22;3089;48.202;11.510;2023-07-24T13:34:52;22.60;99.90
6118;DHT22;3089;48.202;11.510;2023-07-24T13:37:19;22.70;99.90
6118;DHT22;3089;48.202;11.510;2023-07-24T13:39:48;22.80;99.90
6118;DHT22;3089;48.202;11.510;2023-07-24T13:42:15;22.80;99.90
6118;DHT22;3089;48.202;11.510;2023-07-24T13:44:45;22.90;99.90
6118;DHT22;3089;48.202;11.510;2023-07-24T13:47:13;23.00;99.90
6118;DHT22;3089;48.202;11.510;2023-07-24T13:49:40;23.00;99.90
6118;DHT22;3089;48.202;11.510;2023-07-24T13:52:08;22.90;99.90
6118;DHT22;3089;48.202;11.510;2023-07-24T13:54:36;22.90;99.90
6118;DHT22;3089;48.202;11.510;2023-07-24T13:57:04;23.10;99.90
6118;DHT22;3089;48.202;11.510;2023-07-24T13:59:34;23.20;99.90
6118;DHT22;3089;48.202;11.510;2023-07-24T14:02:04;23.20;99.90
6118;DHT22;3089;48.202;11.510;2023-07-24T14:04:32;23.10;99.90
6118;DHT22;3089;48.202;11.510;2023-07-24T14:07:00;23.20;99.90
6118;DHT22;3089;48.202;11.510;2023-07-24T14:09:28;23.20;99.90
6118;DHT22;3089;48.202;11.510;2023-07-24T14:11:57;23.30;99.90
6118;DHT22;3089;48.202;11.510;2023-07-24T14:14:25;23.30;99.90
6118;DHT22;3089;48.202;11.510;2023-07-24T14:16:53;23.30;99.90
6118;DHT22;3089;48.202;11.510;2023-07-24T14:19:22;23.40;99.90
6118;DHT22;3089;48.202;11.510;2023-07-24T14:21:50;23.50;99.90
6118;DHT22;3089;48.202;11.510;2023-07-24T14:24:18;23.60;99.90
6118;DHT22;3089;48.202;11.510;2023-07-24T14:26:46;23.80;99.90
6118;DHT22;3089;48.202;11.510;2023-07-24T14:29:14;23.80;99.90
6118;DHT22;3089;48.202;11.510;2023-07-24T14:31:44;23.90;99.90
6118;DHT22;3089;48.202;11.510;2023-07-24T14:34:12;23.90;99.90
6118;DHT22;3089;48.202;11.510;2023-07-24T14:36:41;23.80;99.90
6118;DHT22;3089;48.202;11.510;2023-07-24T14:39:09;23.80;99.90
6118;DHT22;3089;48.202;11.510;2023-07-24T14:41:37;23.80;99.90
6118;DHT22;3089;48.202;11.510;2023-07-24T14:44:05;23.80;99.90
6118;DHT22;3089;48.202;11.510;2023-07-24T14:46:33;23.80;99.90
6118;DHT22;3089;48.202;11.510;2023-07-24T14:49:01;23.80;99.90
6118;DHT22;3089;48.202;11.510;2023-07-24T14:51:28;23.60;99.90
6118;DHT22;3089;48.202;11.510;2023-07-24T14:53:58;23.60;99.90
6118;DHT22;3089;48.202;11.510;2023-07-24T14:56:26;23.50;99.90
6118;DHT22;3089;48.202;11.510;2023-07-24T14:59:10;23.50;99.90
6118;DHT22;3089;48.202;11.510;2023-07-24T15:01:37;23.50;99.90
6118;DHT22;3089;48.202;11.510;2023-07-24T15:04:05;23.40;99.90
6118;DHT22;3089;48.202;11.510;2023-07-24T15:06:33;23.40;99.90
6118;DHT22;3089;48.202;11.510;2023-07-24T15:09:02;23.40;99.90
6118;DHT22;3089;48.202;11.510;2023-07-24T15:11:30;23.40;99.90
6118;DHT22;3089;48.202;11.510;2023-07-24T15:13:59;23.40;99.90
6118;DHT22;3089;48.202;11.510;2023-07-24T15:16:26;23.40;99.90
6118;DHT22;3089;48.202;11.510;2023-07-24T15:18:54;23.40;99.90
6118;DHT22;3089;48.202;11.510;2023-07-24T15:21:22;23.40;99.90
6118;DHT22;3089;48.202;11.510;2023-07-24T15:23:50;23.40;99.90
6118;DHT22;3089;48.202;11.510;2023-07-24T15:26:20;23.30;99.90
6118;DHT22;3089;48.202;11.510;2023-07-24T15:28:48;23.20;99.90
6118;DHT22;3089;48.202;11.510;2023-07-24T15:31:16;23.20;99.90
6118;DHT22;3089;48.202;11.510;2023-07-24T15:33:44;23.20;99.90
6118;DHT22;3089;48.202;11.510;2023-07-24T15:36:11;23.10;99.90
6118;DHT22;3089;48.202;11.510;2023-07-24T15:38:39;23.00;99.90
6118;DHT22;3089;48.202;11.510;2023-07-24T15:41:07;23.00;99.90
6118;DHT22;3089;48.202;11.510;2023-07-24T15:43:36;23.00;99.90
6118;DHT22;3089;48.202;11.510;2023-07-24T15:46:04;23.00;99.90
6118;DHT22;3089;48.202;11.510;2023-07-24T15:48:32;23.00;99.90
6118;DHT22;3089;48.202;11.510;2023-07-24T15:51:01;23.10;99.90
6118;DHT22;3089;48.202;11.510;2023-07-24T15:53:29;23.10;99.90
6118;DHT22;3089;48.202;11.510;2023-07-24T15:55:58;23.10;99.90
6118;DHT22;3089;48.202;11.510;2023-07-24T15:58:26;23.10;99.90